createdAt,value
2023-04-28T00:01:30.878Z,2.22
2023-04-28T00:03:58.914Z,1.88
2023-04-28T00:06:26.081Z,1.95
2023-04-28T00:08:53.026Z,2.33
2023-04-28T00:11:20.009Z,2.22
2023-04-28T00:13:46.868Z,1.45
2023-04-28T00:16:13.720Z,2.28
2023-04-28T00:18:40.591Z,2.35
2023-04-28T00:21:07.511Z,1.58
2023-04-28T00:23:34.382Z,2.08
2023-04-28T00:26:01.399Z,2.28
2023-04-28T00:28:34.289Z,1.67
2023-04-28T00:31:02.658Z,2.58
2023-04-28T00:33:29.582Z,2.10
2023-04-28T00:36:01.496Z,1.95
2023-04-28T00:38:28.887Z,2.20
2023-04-28T00:40:55.914Z,1.88
2023-04-28T00:43:22.769Z,2.80
2023-04-28T00:45:52.890Z,2.15
2023-04-28T00:48:20.354Z,2.13
2023-04-28T00:50:48.789Z,2.65
2023-04-28T00:53:16.184Z,1.90
2023-04-28T00:55:43.042Z,2.17
2023-04-28T00:58:10.030Z,2.22
2023-04-28T01:00:36.860Z,2.13
2023-04-28T01:03:03.902Z,2.38
2023-04-28T01:05:31.349Z,1.58
2023-04-28T01:07:58.789Z,1.77
2023-04-28T01:10:25.708Z,1.73
2023-04-28T01:12:52.514Z,2.50
2023-04-28T01:15:20.939Z,1.75
2023-04-28T01:17:48.412Z,2.03
2023-04-28T01:20:15.696Z,1.90
2023-04-28T01:22:42.653Z,2.35
2023-04-28T01:25:09.707Z,2.33
2023-04-28T01:27:36.590Z,1.85
2023-04-28T01:30:03.824Z,2.15
2023-04-28T01:32:30.725Z,2.15
2023-04-28T01:34:57.610Z,2.83
2023-04-28T01:37:24.618Z,2.58
2023-04-28T01:39:51.459Z,1.70
2023-04-28T01:42:18.309Z,2.05
2023-04-28T01:44:45.142Z,2.20
2023-04-28T01:47:12.013Z,2.08
2023-04-28T01:49:38.855Z,2.33
2023-04-28T01:52:05.900Z,2.00
2023-04-28T01:54:32.798Z,1.80
2023-04-28T01:56:59.620Z,2.40
2023-04-28T01:59:26.629Z,2.40
2023-04-28T02:01:53.568Z,1.75
2023-04-28T02:04:20.555Z,2.13
2023-04-28T02:06:47.440Z,2.00
2023-04-28T02:09:14.296Z,2.05
2023-04-28T02:11:41.355Z,1.90
2023-04-28T02:14:08.299Z,2.33
2023-04-28T02:16:35.207Z,2.88
2023-04-28T02:19:02.060Z,1.98
2023-04-28T02:21:28.995Z,2.75
2023-04-28T02:23:56.252Z,1.90
2023-04-28T02:26:23.333Z,2.38
2023-04-28T02:28:50.547Z,2.00
2023-04-28T02:31:18.161Z,2.40
2023-04-28T02:33:45.081Z,2.42
2023-04-28T02:36:12.037Z,2.22
2023-04-28T02:38:38.975Z,2.22
2023-04-28T02:41:09.422Z,1.80
2023-04-28T02:43:37.341Z,2.33
2023-04-28T02:46:05.274Z,2.45
2023-04-28T02:48:33.640Z,2.60
2023-04-28T02:51:00.736Z,2.42
2023-04-28T02:53:28.060Z,2.30
2023-04-28T02:55:54.993Z,2.03
2023-04-28T02:58:21.825Z,2.00
2023-04-28T03:00:48.946Z,2.22
2023-04-28T03:03:16.187Z,2.60
2023-04-28T03:05:43.225Z,2.53
2023-04-28T03:08:10.083Z,2.00
2023-04-28T03:10:36.968Z,2.08
2023-04-28T03:13:03.863Z,3.25
2023-04-28T03:15:31.004Z,2.22
2023-04-28T03:17:57.961Z,2.45
2023-04-28T03:20:24.887Z,2.63
2023-04-28T03:22:51.707Z,2.58
2023-04-28T03:25:18.642Z,1.83
2023-04-28T03:27:45.716Z,2.03
2023-04-28T03:30:12.930Z,2.30
2023-04-28T03:32:39.838Z,2.58
2023-04-28T03:35:06.958Z,3.10
2023-04-28T03:37:33.955Z,2.53
2023-04-28T03:40:00.785Z,2.83
2023-04-28T03:42:27.679Z,2.88
2023-04-28T03:44:54.569Z,2.80
2023-04-28T03:47:21.520Z,2.50
2023-04-28T03:49:48.410Z,2.25
2023-04-28T03:52:15.225Z,2.08
2023-04-28T03:54:42.079Z,2.45
2023-04-28T03:57:08.916Z,2.03
2023-04-28T03:59:35.902Z,2.33
2023-04-28T04:02:02.858Z,2.05
2023-04-28T04:04:29.861Z,2.45
2023-04-28T04:06:56.988Z,2.90
2023-04-28T04:09:23.923Z,3.28
2023-04-28T04:11:50.771Z,2.95
2023-04-28T04:14:18.096Z,3.45
2023-04-28T04:16:47.326Z,3.40
2023-04-28T04:19:14.387Z,3.15
2023-04-28T04:21:41.332Z,3.15
2023-04-28T04:24:08.288Z,2.88
2023-04-28T04:26:35.139Z,3.10
2023-04-28T04:29:01.992Z,4.60
2023-04-28T04:31:28.963Z,3.67
2023-04-28T04:33:55.852Z,4.88
2023-04-28T04:36:22.888Z,4.20
2023-04-28T04:38:49.866Z,3.60
2023-04-28T04:41:17.152Z,2.97
2023-04-28T04:43:44.013Z,2.60
2023-04-28T04:46:10.912Z,2.85
2023-04-28T04:48:37.833Z,3.20
2023-04-28T04:51:04.929Z,3.25
2023-04-28T04:53:31.993Z,5.78
2023-04-28T04:55:58.987Z,4.95
2023-04-28T04:58:25.988Z,3.72
2023-04-28T05:00:52.818Z,3.53
2023-04-28T05:03:19.823Z,3.40
2023-04-28T05:05:47.180Z,3.75
2023-04-28T05:08:14.089Z,4.07
2023-04-28T05:10:41.132Z,3.03
2023-04-28T05:13:07.985Z,4.15
2023-04-28T05:15:34.924Z,4.00
2023-04-28T05:18:06.764Z,4.90
2023-04-28T05:20:33.679Z,4.30
2023-04-28T05:23:00.610Z,5.00
2023-04-28T05:25:27.515Z,6.32
2023-04-28T05:27:54.375Z,5.13
2023-04-28T05:30:21.323Z,4.95
2023-04-28T05:32:48.185Z,4.22
2023-04-28T05:35:15.459Z,4.25
2023-04-28T05:37:43.861Z,4.43
2023-04-28T05:40:11.410Z,5.40
2023-04-28T05:42:38.398Z,4.65
2023-04-28T05:45:07.103Z,3.78
2023-04-28T05:47:33.997Z,4.10
2023-04-28T05:50:00.881Z,4.20
2023-04-28T05:52:28.161Z,4.70
2023-04-28T05:54:55.163Z,7.22
2023-04-28T05:57:22.653Z,14.35
2023-04-28T05:59:49.585Z,11.73
2023-04-28T06:02:23.200Z,42.75
2023-04-28T06:04:51.267Z,26.45
2023-04-28T06:07:18.500Z,5.78
2023-04-28T06:09:45.714Z,26.60
2023-04-28T06:12:12.653Z,16.00
2023-04-28T06:14:40.492Z,9.88
2023-04-28T06:17:07.451Z,5.32
2023-04-28T06:19:34.329Z,4.05
2023-04-28T06:22:01.156Z,2.33
2023-04-28T06:24:28.097Z,7.45
2023-04-28T06:26:55.795Z,7.05
2023-04-28T06:29:24.247Z,4.00
2023-04-28T06:31:52.952Z,4.18
2023-04-28T06:34:19.945Z,4.78
2023-04-28T06:36:46.803Z,2.90
2023-04-28T06:39:13.711Z,2.53
2023-04-28T06:41:41.357Z,3.83
2023-04-28T06:44:08.423Z,2.70
2023-04-28T06:46:37.591Z,2.83
2023-04-28T06:49:04.710Z,2.30
2023-04-28T06:51:34.850Z,2.65
2023-04-28T06:54:01.803Z,3.35
2023-04-28T06:56:29.059Z,8.18
2023-04-28T06:58:57.410Z,3.95
2023-04-28T07:01:24.265Z,2.22
2023-04-28T07:03:51.683Z,3.03
2023-04-28T07:06:18.628Z,2.10
2023-04-28T07:08:45.579Z,5.15
2023-04-28T07:11:12.530Z,3.75
2023-04-28T07:13:39.454Z,4.25
2023-04-28T07:16:06.678Z,2.25
2023-04-28T07:18:33.640Z,2.03
2023-04-28T07:21:01.819Z,1.77
2023-04-28T07:23:29.699Z,3.30
2023-04-28T07:25:58.412Z,3.40
2023-04-28T07:28:25.299Z,2.60
2023-04-28T07:30:52.238Z,2.42
2023-04-28T07:33:19.240Z,2.70
2023-04-28T07:35:46.183Z,2.35
2023-04-28T07:38:13.259Z,2.03
2023-04-28T07:40:40.236Z,2.67
2023-04-28T07:43:07.560Z,2.40
2023-04-28T07:45:34.558Z,3.03
2023-04-28T07:48:01.449Z,1.98
2023-04-28T07:50:28.929Z,2.40
2023-04-28T07:52:55.801Z,2.88
2023-04-28T07:55:22.730Z,2.90
2023-04-28T07:57:49.789Z,9.40
2023-04-28T08:00:18.055Z,4.70
2023-04-28T08:02:45.072Z,3.55
2023-04-28T08:05:12.669Z,3.58
2023-04-28T08:07:39.676Z,3.97
2023-04-28T08:10:07.325Z,3.97
2023-04-28T08:12:34.176Z,2.13
2023-04-28T08:15:01.644Z,3.50
2023-04-28T08:17:28.531Z,2.65
2023-04-28T08:19:55.486Z,2.40
2023-04-28T08:22:22.394Z,2.05
2023-04-28T08:24:49.252Z,3.10
2023-04-28T08:27:16.630Z,2.95
2023-04-28T08:29:43.505Z,1.65
2023-04-28T08:32:10.422Z,1.65
2023-04-28T08:34:37.437Z,1.80
2023-04-28T08:37:04.595Z,0.93
2023-04-28T08:39:32.035Z,1.75
2023-04-28T08:41:58.969Z,3.40
2023-04-28T08:44:26.523Z,1.50
2023-04-28T08:46:58.692Z,0.77
2023-04-28T08:49:36.012Z,1.00
2023-04-28T08:52:04.632Z,1.13
2023-04-28T08:54:32.910Z,0.65
2023-04-28T08:57:01.394Z,0.50
2023-04-28T08:59:28.500Z,0.95
2023-04-28T09:01:55.440Z,0.63
2023-04-28T09:04:22.670Z,0.63
2023-04-28T09:06:49.836Z,0.50
2023-04-28T09:09:32.622Z,0.40
2023-04-28T09:12:03.207Z,0.40
2023-04-28T09:14:33.312Z,0.40
2023-04-28T09:17:01.115Z,0.30
2023-04-28T09:19:36.472Z,0.60
2023-04-28T09:22:17.569Z,0.25
2023-04-28T09:24:54.276Z,0.47
2023-04-28T09:27:29.846Z,0.32
2023-04-28T09:29:56.859Z,0.50
2023-04-28T09:32:24.707Z,0.73
2023-04-28T09:34:57.111Z,0.73
2023-04-28T09:37:31.910Z,0.60
2023-04-28T09:40:09.891Z,0.30
2023-04-28T09:42:46.828Z,0.40
2023-04-28T09:45:15.866Z,0.40
2023-04-28T09:47:48.163Z,0.43
2023-04-28T09:50:17.763Z,0.35
2023-04-28T09:52:57.404Z,0.60
2023-04-28T09:55:25.233Z,0.80
2023-04-28T09:57:55.527Z,0.52
2023-04-28T10:00:23.658Z,0.30
2023-04-28T10:02:52.202Z,0.40
2023-04-28T10:05:20.355Z,0.40
2023-04-28T10:07:47.457Z,0.40
2023-04-28T10:10:15.136Z,0.30
2023-04-28T10:12:42.519Z,0.55
2023-04-28T10:15:10.893Z,0.30
2023-04-28T10:17:39.470Z,0.25
2023-04-28T10:20:07.322Z,0.30
2023-04-28T10:23:04.262Z,0.25
2023-04-28T10:25:35.376Z,0.50
2023-04-28T10:28:07.861Z,0.35
2023-04-28T10:30:36.073Z,0.60
2023-04-28T10:33:09.711Z,0.20
2023-04-28T10:35:40.870Z,0.30
2023-04-28T10:38:13.927Z,0.75
2023-04-28T10:43:28.875Z,0.45
2023-04-28T10:46:01.836Z,1.10
2023-04-28T10:51:04.632Z,0.40
2023-04-28T10:53:44.372Z,0.57
2023-04-28T10:56:25.076Z,0.50
2023-04-28T10:59:02.622Z,0.68
2023-04-28T11:01:32.539Z,0.75
2023-04-28T11:04:24.762Z,0.95
2023-04-28T11:07:13.729Z,0.90
2023-04-28T11:09:42.068Z,0.70
2023-04-28T11:12:11.456Z,1.13
2023-04-28T11:14:41.017Z,1.67
2023-04-28T11:17:11.524Z,1.00
2023-04-28T11:19:42.236Z,0.95
2023-04-28T11:22:16.873Z,1.70
2023-04-28T11:25:01.205Z,0.88
2023-04-28T11:27:33.936Z,0.70
2023-04-28T11:30:01.840Z,0.93
2023-04-28T11:32:31.637Z,0.80
2023-04-28T11:34:58.613Z,0.38
2023-04-28T11:37:25.795Z,1.23
2023-04-28T11:39:53.504Z,0.90
2023-04-28T11:42:20.702Z,0.73
2023-04-28T11:44:54.698Z,1.10
2023-04-28T11:47:33.080Z,1.70
2023-04-28T11:50:00.223Z,1.58
2023-04-28T11:52:27.815Z,1.20
2023-04-28T11:54:58.921Z,0.90
2023-04-28T11:57:26.953Z,0.60
2023-04-28T11:59:54.393Z,0.60
2023-04-28T12:02:30.278Z,1.00
2023-04-28T12:05:06.240Z,0.70
2023-04-28T12:07:43.851Z,1.08
2023-04-28T12:10:19.997Z,0.60
2023-04-28T12:12:52.585Z,0.50
2023-04-28T12:15:22.430Z,0.60
2023-04-28T12:17:51.296Z,0.70
2023-04-28T12:20:36.820Z,0.60
2023-04-28T12:23:03.932Z,0.65
2023-04-28T12:25:31.009Z,0.80
2023-04-28T12:28:04.511Z,1.27
2023-04-28T12:30:34.578Z,5.13
2023-04-28T12:33:02.106Z,6.82
2023-04-28T12:35:29.858Z,2.00
2023-04-28T12:37:59.132Z,2.63
2023-04-28T12:40:26.399Z,2.60
2023-04-28T12:42:54.261Z,1.67
2023-04-28T12:45:21.134Z,1.52
2023-04-28T12:47:48.478Z,0.63
2023-04-28T12:50:15.569Z,0.90
2023-04-28T12:52:42.637Z,2.10
2023-04-28T12:55:10.073Z,2.60
2023-04-28T12:57:39.277Z,2.50
2023-04-28T13:00:09.583Z,3.00
2023-04-28T13:02:37.066Z,2.75
2023-04-28T13:05:04.274Z,0.90
2023-04-28T13:07:32.112Z,2.22
2023-04-28T13:09:59.546Z,0.70
2023-04-28T13:12:26.637Z,1.23
2023-04-28T13:14:53.487Z,1.10
2023-04-28T13:17:20.356Z,0.40
2023-04-28T13:19:48.065Z,1.52
2023-04-28T13:22:17.136Z,0.65
2023-04-28T13:24:44.360Z,0.38
2023-04-28T13:27:11.594Z,0.20
2023-04-28T13:29:38.552Z,0.30
2023-04-28T13:32:06.117Z,0.40
2023-04-28T13:34:33.489Z,0.30
2023-04-28T13:37:00.379Z,0.95
2023-04-28T13:39:27.202Z,0.20
2023-04-28T13:41:54.066Z,0.50
2023-04-28T13:44:21.356Z,0.60
2023-04-28T13:46:48.440Z,1.10
2023-04-28T13:49:15.568Z,0.85
2023-04-28T13:51:42.915Z,1.77
2023-04-28T13:54:11.589Z,0.77
2023-04-28T13:56:38.726Z,0.68
2023-04-28T13:59:05.661Z,1.95
2023-04-28T14:01:32.547Z,1.92
2023-04-28T14:03:59.797Z,2.03
2023-04-28T14:06:27.833Z,1.80
2023-04-28T14:08:54.778Z,1.50
2023-04-28T14:11:21.730Z,2.35
2023-04-28T14:13:48.576Z,2.38
2023-04-28T14:16:15.445Z,2.40
2023-04-28T14:18:42.259Z,3.40
2023-04-28T14:21:09.173Z,2.50
2023-04-28T14:23:36.082Z,2.33
2023-04-28T14:26:03.046Z,2.55
2023-04-28T14:28:29.936Z,2.63
2023-04-28T14:30:56.886Z,2.65
2023-04-28T14:33:24.456Z,2.40
2023-04-28T14:35:51.389Z,3.10
2023-04-28T14:38:18.243Z,3.45
2023-04-28T14:40:45.184Z,5.10
2023-04-28T14:43:12.014Z,4.63
2023-04-28T14:45:39.014Z,3.83
2023-04-28T14:48:07.714Z,4.07
2023-04-28T14:50:34.675Z,4.78
2023-04-28T14:53:05.760Z,4.15
2023-04-28T14:55:33.687Z,4.63
2023-04-28T14:58:00.555Z,3.92
2023-04-28T15:00:27.437Z,3.63
2023-04-28T15:02:54.441Z,5.55
2023-04-28T15:05:21.399Z,4.32
2023-04-28T15:07:48.444Z,2.97
2023-04-28T15:10:15.489Z,3.90
2023-04-28T15:12:42.881Z,3.30
2023-04-28T15:15:10.404Z,5.10
2023-04-28T15:17:37.284Z,2.95
2023-04-28T15:20:05.986Z,2.50
2023-04-28T15:22:32.961Z,2.90
2023-04-28T15:25:00.354Z,4.45
2023-04-28T15:27:27.231Z,4.78
2023-04-28T15:29:54.338Z,3.00
2023-04-28T15:32:21.728Z,3.28
2023-04-28T15:34:49.112Z,4.00
2023-04-28T15:37:37.844Z,3.20
2023-04-28T15:40:06.015Z,3.67
2023-04-28T15:42:33.172Z,3.10
2023-04-28T15:45:00.180Z,3.40
2023-04-28T15:47:26.971Z,3.13
2023-04-28T15:49:53.872Z,3.30
2023-04-28T15:52:22.576Z,2.70
2023-04-28T15:54:49.697Z,3.80
2023-04-28T15:57:16.734Z,3.55
2023-04-28T15:59:43.595Z,2.22
2023-04-28T16:02:10.459Z,4.85
2023-04-28T16:04:37.571Z,6.22
2023-04-28T16:07:04.670Z,3.28
2023-04-28T16:09:31.842Z,2.63
2023-04-28T16:11:59.922Z,2.92
2023-04-28T16:14:27.318Z,1.63
2023-04-28T16:16:54.439Z,2.50
2023-04-28T16:19:22.487Z,2.75
2023-04-28T16:21:49.358Z,1.73
2023-04-28T16:24:16.183Z,2.50
2023-04-28T16:26:43.126Z,2.53
2023-04-28T16:29:11.222Z,2.20
2023-04-28T16:31:39.748Z,1.60
2023-04-28T16:34:06.589Z,1.63
2023-04-28T16:36:33.501Z,1.05
2023-04-28T16:39:00.326Z,2.22
2023-04-28T16:41:27.180Z,1.80
2023-04-28T16:43:54.090Z,1.23
2023-04-28T16:46:21.187Z,1.30
2023-04-28T16:48:48.076Z,1.50
2023-04-28T16:51:14.935Z,1.95
2023-04-28T16:53:42.334Z,1.88
2023-04-28T16:56:10.686Z,0.90
2023-04-28T16:58:38.112Z,1.65
2023-04-28T17:01:05.061Z,1.55
2023-04-28T17:03:32.132Z,1.55
2023-04-28T17:05:59.779Z,2.08
2023-04-28T17:08:26.946Z,1.63
2023-04-28T17:10:53.869Z,2.63
2023-04-28T17:13:20.701Z,1.88
2023-04-28T17:15:55.519Z,9.93
2023-04-28T17:18:22.410Z,3.55
2023-04-28T17:20:50.362Z,3.10
2023-04-28T17:23:17.179Z,2.17
2023-04-28T17:25:44.183Z,2.03
2023-04-28T17:28:11.667Z,1.33
2023-04-28T17:30:38.744Z,1.73
2023-04-28T17:33:05.670Z,1.55
2023-04-28T17:35:32.536Z,1.63
2023-04-28T17:37:59.474Z,2.28
2023-04-28T17:40:27.097Z,1.55
2023-04-28T17:42:56.928Z,1.98
2023-04-28T17:45:23.765Z,1.85
2023-04-28T17:47:50.691Z,1.50
2023-04-28T17:50:17.787Z,2.17
2023-04-28T17:52:44.756Z,1.40
2023-04-28T17:55:11.818Z,1.55
2023-04-28T17:57:38.654Z,1.52
2023-04-28T18:00:06.779Z,1.33
2023-04-28T18:02:33.726Z,0.95
2023-04-28T18:05:01.285Z,1.98
2023-04-28T18:07:28.209Z,1.00
2023-04-28T18:09:57.431Z,0.93
2023-04-28T18:12:26.121Z,0.60
2023-04-28T18:14:54.191Z,1.17
2023-04-28T18:17:23.412Z,1.45
2023-04-28T18:19:52.433Z,0.47
2023-04-28T18:22:19.330Z,0.80
2023-04-28T18:24:46.329Z,1.13
2023-04-28T18:27:13.181Z,2.38
2023-04-28T18:29:40.443Z,1.35
2023-04-28T18:32:07.345Z,3.08
2023-04-28T18:34:34.286Z,2.80
2023-04-28T18:37:01.100Z,1.50
2023-04-28T18:39:28.038Z,1.30
2023-04-28T18:41:54.942Z,1.25
2023-04-28T18:44:21.897Z,1.80
2023-04-28T18:46:48.779Z,2.20
2023-04-28T18:49:15.625Z,2.53
2023-04-28T18:51:42.459Z,1.92
2023-04-28T18:54:09.708Z,1.77
2023-04-28T18:56:37.047Z,1.13
2023-04-28T18:59:08.185Z,1.40
2023-04-28T19:01:35.369Z,0.73
2023-04-28T19:04:03.419Z,1.30
2023-04-28T19:06:30.854Z,1.30
2023-04-28T19:08:57.681Z,1.77
2023-04-28T19:11:24.996Z,1.17
2023-04-28T19:13:52.416Z,4.30
2023-04-28T19:16:19.627Z,8.52
2023-04-28T19:18:46.649Z,7.97
2023-04-28T19:21:14.065Z,3.00
2023-04-28T19:23:41.133Z,3.33
2023-04-28T19:26:09.357Z,3.08
2023-04-28T19:28:36.318Z,1.80
2023-04-28T19:31:03.231Z,1.70
2023-04-28T19:33:30.186Z,2.50
2023-04-28T19:35:57.072Z,4.38
2023-04-28T19:38:24.368Z,3.00
2023-04-28T19:40:59.071Z,1.35
2023-04-28T19:43:25.918Z,1.02
2023-04-28T19:45:53.129Z,2.40
2023-04-28T19:48:20.684Z,2.00
2023-04-28T19:50:47.531Z,2.80
2023-04-28T19:53:14.918Z,1.73
2023-04-28T19:55:41.726Z,1.88
2023-04-28T19:58:10.290Z,5.30
2023-04-28T20:00:37.274Z,3.78
2023-04-28T20:03:04.358Z,4.63
2023-04-28T20:05:31.535Z,3.40
2023-04-28T20:07:58.521Z,2.05
2023-04-28T20:10:25.441Z,1.70
2023-04-28T20:12:54.047Z,2.05
2023-04-28T20:15:21.040Z,1.60
2023-04-28T20:17:47.931Z,1.05
2023-04-28T20:20:17.613Z,1.55
2023-04-28T20:22:44.516Z,1.60
2023-04-28T20:25:12.511Z,1.30
2023-04-28T20:27:39.461Z,2.97
2023-04-28T20:30:07.473Z,2.15
2023-04-28T20:32:34.454Z,2.13
2023-04-28T20:35:02.980Z,1.95
2023-04-28T20:37:30.277Z,1.23
2023-04-28T20:39:57.185Z,1.77
2023-04-28T20:42:24.074Z,1.23
2023-04-28T20:44:51.154Z,1.42
2023-04-28T20:47:18.232Z,1.25
2023-04-28T20:49:45.134Z,0.88
2023-04-28T20:52:12.253Z,1.00
2023-04-28T20:54:40.042Z,0.85
2023-04-28T20:57:07.242Z,1.00
2023-04-28T20:59:34.107Z,0.70
2023-04-28T21:02:01.076Z,0.73
2023-04-28T21:04:28.486Z,1.58
2023-04-28T21:06:55.815Z,1.73
2023-04-28T21:09:25.326Z,1.60
2023-04-28T21:11:52.773Z,1.50
2023-04-28T21:14:19.699Z,1.48
2023-04-28T21:16:46.549Z,2.38
2023-04-28T21:19:13.455Z,3.35
2023-04-28T21:21:40.340Z,3.83
2023-04-28T21:24:08.322Z,4.30
2023-04-28T21:26:36.153Z,3.80
2023-04-28T21:29:03.362Z,2.75
2023-04-28T21:31:30.951Z,1.95
2023-04-28T21:33:58.096Z,2.67
2023-04-28T21:36:25.013Z,2.63
2023-04-28T21:38:52.073Z,3.03
2023-04-28T21:41:18.923Z,2.55
2023-04-28T21:43:46.114Z,2.85
2023-04-28T21:46:13.359Z,3.03
2023-04-28T21:48:40.305Z,1.38
2023-04-28T21:51:07.202Z,1.58
2023-04-28T21:53:34.125Z,1.67
2023-04-28T21:56:01.119Z,1.20
2023-04-28T21:58:28.067Z,1.00
2023-04-28T22:00:55.240Z,0.75
2023-04-28T22:03:22.596Z,1.83
2023-04-28T22:05:49.785Z,2.78
2023-04-28T22:08:17.246Z,2.40
2023-04-28T22:10:45.791Z,2.35
2023-04-28T22:13:16.153Z,1.38
2023-04-28T22:15:43.301Z,2.17
2023-04-28T22:18:10.387Z,1.20
2023-04-28T22:20:37.352Z,1.17
2023-04-28T22:23:04.802Z,1.10
2023-04-28T22:25:31.939Z,1.75
2023-04-28T22:27:58.873Z,1.00
2023-04-28T22:30:26.308Z,1.08
2023-04-28T22:32:53.523Z,1.05
2023-04-28T22:35:20.510Z,0.82
2023-04-28T22:37:47.489Z,0.57
2023-04-28T22:40:14.463Z,1.23
2023-04-28T22:42:42.660Z,1.30
2023-04-28T22:45:11.045Z,1.33
2023-04-28T22:47:41.091Z,1.15
2023-04-28T22:50:12.710Z,1.10
2023-04-28T22:52:39.739Z,1.60
2023-04-28T22:55:07.122Z,1.80
2023-04-28T22:57:34.252Z,0.80
2023-04-28T23:00:01.176Z,0.80
2023-04-28T23:02:28.948Z,0.70
2023-04-28T23:04:56.925Z,2.25
2023-04-28T23:07:23.951Z,2.10
2023-04-28T23:09:51.079Z,1.70
2023-04-28T23:12:18.236Z,1.40
2023-04-28T23:14:45.149Z,2.00
2023-04-28T23:17:11.962Z,1.10
2023-04-28T23:19:39.714Z,1.52
2023-04-28T23:22:08.121Z,1.70
2023-04-28T23:24:37.233Z,1.40
2023-04-28T23:27:04.872Z,1.40
2023-04-28T23:29:32.265Z,1.30
2023-04-28T23:31:59.694Z,1.67
2023-04-28T23:34:27.084Z,1.17
2023-04-28T23:36:54.034Z,1.58
2023-04-28T23:39:21.071Z,2.25
2023-04-28T23:41:47.979Z,1.67
2023-04-28T23:44:14.859Z,1.30
2023-04-28T23:46:41.817Z,1.23
2023-04-28T23:49:08.717Z,1.20
2023-04-28T23:51:36.179Z,1.10
2023-04-28T23:54:03.881Z,1.77
2023-04-28T23:56:31.554Z,1.35
2023-04-28T23:58:58.437Z,1.58
